createdAt,value
2023-04-28T00:01:45.184Z,97910.85
2023-04-28T00:04:12.895Z,97911.42
2023-04-28T00:06:40.724Z,97904.81
2023-04-28T00:09:11.479Z,97907.44
2023-04-28T00:11:38.699Z,97907.00
2023-04-28T00:14:05.960Z,97903.52
2023-04-28T00:16:33.469Z,97896.15
2023-04-28T00:19:00.452Z,97895.67
2023-04-28T00:21:28.316Z,97896.89
2023-04-28T00:23:55.781Z,97895.93
2023-04-28T00:26:22.924Z,97897.20
2023-04-28T00:28:50.271Z,97896.66
2023-04-28T00:31:17.613Z,97892.64
2023-04-28T00:33:44.991Z,97894.31
2023-04-28T00:36:12.232Z,97892.90
2023-04-28T00:38:39.292Z,97888.40
2023-04-28T00:41:06.856Z,97882.36
2023-04-28T00:43:44.023Z,97880.80
2023-04-28T00:46:13.334Z,97879.99
2023-04-28T00:48:40.883Z,97876.08
2023-04-28T00:51:08.134Z,97873.32
2023-04-28T00:53:35.593Z,97874.88
2023-04-28T00:56:03.458Z,97871.17
2023-04-28T00:58:31.454Z,97871.52
2023-04-28T01:01:05.843Z,97866.96
2023-04-28T01:03:34.012Z,97863.67
2023-04-28T01:06:02.236Z,97859.31
2023-04-28T01:08:30.162Z,97856.08
2023-04-28T01:10:58.230Z,97857.21
2023-04-28T01:13:45.863Z,97860.73
2023-04-28T01:16:13.501Z,97864.10
2023-04-28T01:18:42.673Z,97865.00
2023-04-28T01:21:09.776Z,97875.03
2023-04-28T01:23:38.242Z,97878.02
2023-04-28T01:26:05.763Z,97882.10
2023-04-28T01:28:33.978Z,97884.17
2023-04-28T01:31:01.569Z,97881.11
2023-04-28T01:33:29.100Z,97879.48
2023-04-28T01:35:59.269Z,97881.18
2023-04-28T01:38:26.591Z,97880.02
2023-04-28T01:40:54.543Z,97875.95
2023-04-28T01:43:21.905Z,97874.83
2023-04-28T01:45:49.217Z,97875.44
2023-04-28T01:48:16.809Z,97878.31
2023-04-28T01:50:46.935Z,97879.09
2023-04-28T01:53:14.793Z,97881.16
2023-04-28T01:55:42.373Z,97884.26
2023-04-28T01:58:09.611Z,97886.27
2023-04-28T02:00:37.472Z,97881.67
2023-04-28T02:03:05.220Z,97880.77
2023-04-28T02:05:35.002Z,97876.98
2023-04-28T02:08:02.267Z,97874.13
2023-04-28T02:10:30.266Z,97875.15
2023-04-28T02:12:57.827Z,97877.17
2023-04-28T02:15:25.130Z,97877.77
2023-04-28T02:17:53.779Z,97875.61
2023-04-28T02:20:21.317Z,97881.60
2023-04-28T02:22:49.008Z,97878.73
2023-04-28T02:25:16.644Z,97876.42
2023-04-28T02:27:43.999Z,97875.77
2023-04-28T02:30:11.863Z,97879.13
2023-04-28T02:32:39.143Z,97881.30
2023-04-28T02:35:06.705Z,97883.72
2023-04-28T02:37:34.124Z,97893.31
2023-04-28T02:40:01.512Z,97896.17
2023-04-28T02:42:29.142Z,97895.81
2023-04-28T02:44:56.566Z,97900.62
2023-04-28T02:47:24.060Z,97900.12
2023-04-28T02:49:51.549Z,97897.31
2023-04-28T02:52:19.177Z,97905.78
2023-04-28T02:54:48.679Z,97908.20
2023-04-28T02:57:16.135Z,97910.77
2023-04-28T02:59:43.799Z,97907.27
2023-04-28T03:02:12.425Z,97906.77
2023-04-28T03:04:39.668Z,97909.55
2023-04-28T03:07:07.330Z,97918.29
2023-04-28T03:09:35.062Z,97919.58
2023-04-28T03:12:03.126Z,97921.30
2023-04-28T03:14:31.828Z,97917.52
2023-04-28T03:16:59.174Z,97915.08
2023-04-28T03:19:26.340Z,97914.36
2023-04-28T03:21:53.658Z,97914.91
2023-04-28T03:24:21.435Z,97917.23
2023-04-28T03:26:50.190Z,97923.57
2023-04-28T03:29:17.611Z,97920.84
2023-04-28T03:31:44.860Z,97925.55
2023-04-28T03:34:12.310Z,97922.34
2023-04-28T03:36:40.012Z,97927.35
2023-04-28T03:39:13.043Z,97925.99
2023-04-28T03:41:41.168Z,97924.66
2023-04-28T03:44:38.158Z,97924.77
2023-04-28T03:47:06.635Z,97929.72
2023-04-28T03:49:34.297Z,97926.44
2023-04-28T03:52:01.753Z,97924.09
2023-04-28T03:54:29.601Z,97916.12
2023-04-28T03:56:58.209Z,97919.40
2023-04-28T03:59:26.482Z,97919.41
2023-04-28T04:01:53.733Z,97917.48
2023-04-28T04:04:21.974Z,97912.02
2023-04-28T04:06:49.979Z,97901.85
2023-04-28T04:09:18.256Z,97899.80
2023-04-28T04:11:45.664Z,97895.85
2023-04-28T04:14:13.296Z,97894.43
2023-04-28T04:16:41.045Z,97887.23
2023-04-28T04:19:08.694Z,97888.63
2023-04-28T04:21:42.228Z,97882.13
2023-04-28T04:24:09.492Z,97877.50
2023-04-28T04:26:36.755Z,97881.48
2023-04-28T04:29:13.778Z,97876.90
2023-04-28T04:31:41.250Z,97864.37
2023-04-28T04:34:09.122Z,97865.46
2023-04-28T04:36:37.275Z,97861.88
2023-04-28T04:39:05.077Z,97858.45
2023-04-28T04:41:32.600Z,97849.47
2023-04-28T04:44:15.751Z,97844.25
2023-04-28T04:46:45.810Z,97839.09
2023-04-28T04:49:13.349Z,97836.77
2023-04-28T04:51:41.485Z,97837.64
2023-04-28T04:54:09.133Z,97834.52
2023-04-28T04:56:37.555Z,97832.52
2023-04-28T04:59:05.292Z,97832.38
2023-04-28T05:01:42.587Z,97826.95
2023-04-28T05:04:10.580Z,97825.07
2023-04-28T05:06:38.304Z,97828.70
2023-04-28T05:09:06.168Z,97834.05
2023-04-28T05:11:34.111Z,97842.27
2023-04-28T05:14:01.382Z,97850.41
2023-04-28T05:16:30.440Z,97855.40
2023-04-28T05:19:10.441Z,97861.92
2023-04-28T05:21:37.891Z,97867.69
2023-04-28T05:24:05.752Z,97870.67
2023-04-28T05:26:33.207Z,97873.94
2023-04-28T05:29:05.786Z,97870.95
2023-04-28T05:31:33.311Z,97872.09
2023-04-28T05:34:01.021Z,97872.05
2023-04-28T05:36:29.402Z,97868.64
2023-04-28T05:38:56.850Z,97875.95
2023-04-28T05:41:24.500Z,97875.62
2023-04-28T05:43:51.586Z,97878.01
2023-04-28T05:46:29.949Z,97879.23
2023-04-28T05:48:59.879Z,97881.41
2023-04-28T05:51:29.534Z,97880.13
2023-04-28T05:53:57.790Z,97877.33
2023-04-28T05:56:25.517Z,97878.10
2023-04-28T05:58:53.134Z,97886.17
2023-04-28T06:01:21.871Z,97887.66
2023-04-28T06:03:50.018Z,97891.14
2023-04-28T06:06:17.592Z,97886.48
2023-04-28T06:08:46.291Z,97890.29
2023-04-28T06:11:13.849Z,97885.85
2023-04-28T06:13:41.872Z,97893.52
2023-04-28T06:16:09.498Z,97902.11
2023-04-28T06:18:37.239Z,97907.21
2023-04-28T06:21:05.088Z,97906.26
2023-04-28T06:23:38.205Z,97910.17
2023-04-28T06:26:05.246Z,97908.70
2023-04-28T06:28:31.969Z,97911.71
2023-04-28T06:30:59.461Z,97919.80
2023-04-28T06:33:26.605Z,97924.89
2023-04-28T06:35:54.050Z,97922.30
2023-04-28T06:38:21.319Z,97933.83
2023-04-28T06:40:48.853Z,97936.80
2023-04-28T06:43:16.518Z,97937.70
2023-04-28T06:45:52.824Z,97934.87
2023-04-28T06:48:20.569Z,97944.02
2023-04-28T06:50:47.900Z,97952.21
2023-04-28T06:53:16.069Z,97959.71
2023-04-28T06:55:43.424Z,97962.09
2023-04-28T06:58:11.105Z,97959.95
2023-04-28T07:00:38.437Z,97962.98
2023-04-28T07:03:06.297Z,97970.89
2023-04-28T07:05:34.006Z,97976.13
2023-04-28T07:08:01.259Z,97979.03
2023-04-28T07:10:28.782Z,97982.08
2023-04-28T07:17:39.953Z,97992.08
2023-04-28T07:20:07.839Z,98000.17
2023-04-28T07:22:35.342Z,98002.98
2023-04-28T07:25:02.965Z,98009.46
2023-04-28T07:27:30.579Z,98012.42
2023-04-28T07:29:58.279Z,98013.67
2023-04-28T07:32:26.231Z,98014.30
2023-04-28T07:34:53.960Z,98017.25
2023-04-28T07:37:21.719Z,98023.48
2023-04-28T07:39:49.482Z,98022.29
2023-04-28T07:42:18.984Z,98021.21
2023-04-28T07:44:46.750Z,98019.74
2023-04-28T07:47:14.001Z,98016.81
2023-04-28T07:49:41.520Z,98011.02
2023-04-28T07:52:09.430Z,98008.34
2023-04-28T07:54:37.388Z,98003.05
2023-04-28T07:57:05.879Z,97995.49
2023-04-28T07:59:34.148Z,97992.75
2023-04-28T08:02:02.822Z,97991.29
2023-04-28T08:04:51.555Z,97990.54
2023-04-28T08:07:19.249Z,97987.19
2023-04-28T08:09:48.037Z,97983.41
2023-04-28T08:12:15.323Z,97980.50
2023-04-28T08:14:42.406Z,97977.55
2023-04-28T08:17:09.838Z,97977.95
2023-04-28T08:19:37.465Z,97970.00
2023-04-28T08:22:05.258Z,97968.73
2023-04-28T08:24:36.067Z,97969.20
2023-04-28T08:27:03.736Z,97961.55
2023-04-28T08:29:31.713Z,97963.62
2023-04-28T08:31:59.354Z,97964.11
2023-04-28T08:34:26.914Z,97963.04
2023-04-28T08:36:54.360Z,97960.61
2023-04-28T08:39:23.263Z,97957.95
2023-04-28T08:41:51.153Z,97955.13
2023-04-28T08:44:18.817Z,97959.73
2023-04-28T08:46:46.914Z,97959.64
2023-04-28T08:49:16.005Z,97961.90
2023-04-28T08:51:47.392Z,97958.52
2023-04-28T08:54:26.102Z,97953.63
2023-04-28T08:56:55.452Z,97941.45
2023-04-28T08:59:22.810Z,97937.11
2023-04-28T09:01:50.382Z,97931.94
2023-04-28T09:04:18.780Z,97928.27
2023-04-28T09:06:47.290Z,97929.08
2023-04-28T09:09:22.853Z,97930.55
2023-04-28T09:11:51.276Z,97936.14
2023-04-28T09:14:18.806Z,97938.23
2023-04-28T09:16:46.654Z,97935.98
2023-04-28T09:19:15.015Z,97934.79
2023-04-28T09:21:49.263Z,97929.69
2023-04-28T09:24:40.137Z,97932.52
2023-04-28T09:27:10.220Z,97927.48
2023-04-28T09:29:38.950Z,97925.98
2023-04-28T09:32:12.386Z,97922.48
2023-04-28T09:34:44.924Z,97923.93
2023-04-28T09:37:22.925Z,97922.08
2023-04-28T09:39:50.820Z,97922.88
2023-04-28T09:42:32.182Z,97925.02
2023-04-28T09:44:59.561Z,97925.04
2023-04-28T09:47:26.804Z,97922.77
2023-04-28T09:49:57.826Z,97926.20
2023-04-28T09:52:25.895Z,97928.75
2023-04-28T09:54:53.964Z,97932.10
2023-04-28T09:57:21.930Z,97934.10
2023-04-28T09:59:50.026Z,97935.07
2023-04-28T10:02:41.794Z,97936.19
2023-04-28T10:05:08.391Z,97939.73
2023-04-28T10:07:35.928Z,97940.48
2023-04-28T10:10:04.126Z,97941.33
2023-04-28T10:12:31.693Z,97941.78
2023-04-28T10:14:58.904Z,97946.05
2023-04-28T10:17:28.106Z,97947.13
2023-04-28T10:19:55.971Z,97952.10
2023-04-28T10:22:33.057Z,97954.06
2023-04-28T10:25:00.513Z,97952.81
2023-04-28T10:27:29.298Z,97955.44
2023-04-28T10:30:26.597Z,97954.10
2023-04-28T10:33:05.837Z,97947.11
2023-04-28T10:35:36.019Z,97951.86
2023-04-28T10:38:04.797Z,97948.61
2023-04-28T10:40:36.034Z,97945.36
2023-04-28T10:43:03.713Z,97942.56
2023-04-28T10:45:50.535Z,97941.75
2023-04-28T10:48:18.414Z,97942.30
2023-04-28T10:51:09.197Z,97947.61
2023-04-28T10:53:46.095Z,97948.77
2023-04-28T10:56:18.712Z,97947.41
2023-04-28T10:58:46.421Z,97944.63
2023-04-28T11:01:20.794Z,97942.53
2023-04-28T11:03:51.801Z,97936.06
2023-04-28T11:06:20.918Z,97933.75
2023-04-28T11:08:48.311Z,97930.10
2023-04-28T11:11:16.485Z,97931.39
2023-04-28T11:13:46.460Z,97928.66
2023-04-28T11:16:14.125Z,97925.28
2023-04-28T11:18:52.843Z,97928.80
2023-04-28T11:21:22.898Z,97931.24
2023-04-28T11:23:50.152Z,97929.56
2023-04-28T11:26:18.536Z,97926.01
2023-04-28T11:28:52.131Z,97919.48
2023-04-28T11:31:25.996Z,97915.70
2023-04-28T11:33:55.371Z,97910.69
2023-04-28T11:36:23.639Z,97907.70
2023-04-28T11:38:51.178Z,97902.42
2023-04-28T11:41:18.629Z,97906.14
2023-04-28T11:43:47.672Z,97907.70
2023-04-28T11:46:22.502Z,97905.98
2023-04-28T11:49:04.242Z,97908.05
2023-04-28T11:51:35.794Z,97906.12
2023-04-28T11:54:03.685Z,97908.67
2023-04-28T11:56:31.921Z,97911.53
2023-04-28T11:59:04.977Z,97912.40
2023-04-28T12:01:32.790Z,97908.89
2023-04-28T12:04:00.281Z,97907.50
2023-04-28T12:06:28.397Z,97903.05
2023-04-28T12:08:57.156Z,97905.96
2023-04-28T12:11:25.758Z,97909.02
2023-04-28T12:14:06.368Z,97912.87
2023-04-28T12:16:42.925Z,97914.02
2023-04-28T12:19:11.030Z,97911.62
2023-04-28T12:21:39.551Z,97912.84
2023-04-28T12:24:14.650Z,97918.89
2023-04-28T12:26:42.254Z,97920.00
2023-04-28T12:29:10.356Z,97924.21
2023-04-28T12:31:48.287Z,97922.50
2023-04-28T12:34:16.113Z,97918.14
2023-04-28T12:36:46.264Z,97918.73
2023-04-28T12:39:16.031Z,97909.73
2023-04-28T12:41:44.151Z,97908.71
2023-04-28T12:44:11.710Z,97908.94
2023-04-28T12:46:39.078Z,97919.53
2023-04-28T12:49:07.207Z,97919.52
2023-04-28T12:51:40.394Z,97920.04
2023-04-28T12:54:27.527Z,97919.71
2023-04-28T12:56:55.158Z,97924.73
2023-04-28T12:59:22.516Z,97926.05
2023-04-28T13:01:50.375Z,97926.29
2023-04-28T13:04:18.438Z,97927.50
2023-04-28T13:06:46.129Z,97927.75
2023-04-28T13:09:14.811Z,97930.23
2023-04-28T13:11:42.278Z,97931.44
2023-04-28T13:14:09.960Z,97930.10
2023-04-28T13:16:37.692Z,97938.94
2023-04-28T13:19:09.667Z,97940.02
2023-04-28T13:21:39.186Z,97941.10
2023-04-28T13:24:07.204Z,97944.02
2023-04-28T13:26:34.875Z,97940.75
2023-04-28T13:29:03.800Z,97945.98
2023-04-28T13:31:31.786Z,97944.83
2023-04-28T13:34:01.937Z,97946.66
2023-04-28T13:36:29.426Z,97950.49
2023-04-28T13:38:56.510Z,97953.38
2023-04-28T13:41:23.845Z,97960.23
2023-04-28T13:43:51.392Z,97960.11
2023-04-28T13:46:19.286Z,97957.59
2023-04-28T13:48:52.383Z,97959.61
2023-04-28T13:51:19.733Z,97954.36
2023-04-28T13:53:47.201Z,97950.23
2023-04-28T13:56:14.612Z,97947.79
2023-04-28T13:58:42.081Z,97949.18
2023-04-28T14:01:09.782Z,97944.74
2023-04-28T14:03:37.592Z,97947.15
2023-04-28T14:06:26.800Z,97943.53
2023-04-28T14:08:54.162Z,97944.52
2023-04-28T14:11:22.741Z,97941.29
2023-04-28T14:13:50.160Z,97934.05
2023-04-28T14:16:18.377Z,97928.37
2023-04-28T14:18:45.925Z,97924.63
2023-04-28T14:21:14.169Z,97918.71
2023-04-28T14:23:41.925Z,97909.99
2023-04-28T14:26:11.282Z,97903.39
2023-04-28T14:28:39.158Z,97899.07
2023-04-28T14:31:26.531Z,97888.88
2023-04-28T14:33:55.567Z,97886.09
2023-04-28T14:36:22.738Z,97886.21
2023-04-28T14:38:49.976Z,97887.67
2023-04-28T14:41:17.380Z,97888.27
2023-04-28T14:43:45.449Z,97887.31
2023-04-28T14:46:12.607Z,97882.41
2023-04-28T14:48:39.816Z,97879.09
2023-04-28T14:51:09.340Z,97880.41
2023-04-28T14:53:42.135Z,97886.24
2023-04-28T14:56:18.442Z,97885.70
2023-04-28T14:58:47.473Z,97888.90
2023-04-28T15:01:15.729Z,97883.78
2023-04-28T15:03:44.326Z,97876.45
2023-04-28T15:06:13.258Z,97876.37
2023-04-28T15:08:41.234Z,97876.70
2023-04-28T15:11:08.249Z,97876.49
2023-04-28T15:13:35.599Z,97874.49
2023-04-28T15:16:02.897Z,97877.33
2023-04-28T15:18:30.510Z,97879.26
2023-04-28T15:20:57.865Z,97874.34
2023-04-28T15:23:25.601Z,97873.44
2023-04-28T15:25:53.738Z,97874.10
2023-04-28T15:28:21.780Z,97872.07
2023-04-28T15:30:49.438Z,97872.05
2023-04-28T15:33:17.681Z,97869.80
2023-04-28T15:35:46.040Z,97866.79
2023-04-28T15:38:13.402Z,97864.75
2023-04-28T15:40:41.306Z,97858.34
2023-04-28T15:43:09.274Z,97857.58
2023-04-28T15:45:39.878Z,97851.41
2023-04-28T15:48:09.666Z,97854.23
2023-04-28T15:50:37.296Z,97851.46
2023-04-28T15:53:04.848Z,97856.48
2023-04-28T15:55:33.216Z,97850.19
2023-04-28T15:58:01.557Z,97852.19
2023-04-28T16:00:29.669Z,97855.39
2023-04-28T16:02:58.792Z,97859.77
2023-04-28T16:05:26.902Z,97856.04
2023-04-28T16:07:54.503Z,97859.61
2023-04-28T16:10:22.630Z,97856.09
2023-04-28T16:12:50.328Z,97861.14
2023-04-28T16:15:20.924Z,97860.31
2023-04-28T16:17:48.703Z,97865.13
2023-04-28T16:20:16.596Z,97868.83
2023-04-28T16:22:44.886Z,97865.59
2023-04-28T16:25:12.347Z,97863.70
2023-04-28T16:27:40.229Z,97864.67
2023-04-28T16:30:09.599Z,97863.14
2023-04-28T16:32:37.817Z,97859.67
2023-04-28T16:35:05.855Z,97862.85
2023-04-28T16:37:35.856Z,97864.58
2023-04-28T16:40:04.238Z,97868.61
2023-04-28T16:42:32.098Z,97872.74
2023-04-28T16:44:59.659Z,97873.84
2023-04-28T16:47:31.934Z,97878.98
2023-04-28T16:49:59.382Z,97878.80
2023-04-28T16:52:27.249Z,97876.63
2023-04-28T16:54:54.500Z,97873.17
2023-04-28T16:57:22.237Z,97873.73
2023-04-28T16:59:52.361Z,97872.89
2023-04-28T17:02:20.550Z,97880.32
2023-04-28T17:04:50.752Z,97881.00
2023-04-28T17:07:19.369Z,97879.02
2023-04-28T17:09:47.189Z,97877.76
2023-04-28T17:12:16.590Z,97877.94
2023-04-28T17:14:44.296Z,97878.98
2023-04-28T17:17:12.136Z,97880.60
2023-04-28T17:19:41.147Z,97887.78
2023-04-28T17:22:08.826Z,97890.82
2023-04-28T17:24:36.292Z,97894.50
2023-04-28T17:27:04.966Z,97899.72
2023-04-28T17:29:32.576Z,97900.60
2023-04-28T17:32:00.038Z,97899.20
2023-04-28T17:34:28.456Z,97904.65
2023-04-28T17:36:56.237Z,97905.10
2023-04-28T17:39:23.775Z,97909.05
2023-04-28T17:41:51.058Z,97903.24
2023-04-28T17:44:17.824Z,97906.43
2023-04-28T17:46:44.820Z,97902.90
2023-04-28T17:49:14.189Z,97911.04
2023-04-28T17:51:41.167Z,97914.02
2023-04-28T17:54:08.911Z,97915.28
2023-04-28T17:56:37.535Z,97918.02
2023-04-28T17:59:05.576Z,97918.85
2023-04-28T18:01:34.555Z,97919.12
2023-04-28T18:04:01.858Z,97925.02
2023-04-28T18:06:29.378Z,97923.02
2023-04-28T18:08:56.732Z,97922.28
2023-04-28T18:11:23.953Z,97925.14
2023-04-28T18:13:51.171Z,97926.02
2023-04-28T18:16:18.352Z,97929.55
2023-04-28T18:18:49.219Z,97925.23
2023-04-28T18:21:16.164Z,97925.35
2023-04-28T18:23:43.314Z,97924.52
2023-04-28T18:26:10.052Z,97927.05
2023-04-28T18:28:37.176Z,97930.18
2023-04-28T18:31:04.941Z,97927.19
2023-04-28T18:33:33.771Z,97931.16
2023-04-28T18:36:01.280Z,97929.95
2023-04-28T18:38:30.612Z,97925.94
2023-04-28T18:40:58.578Z,97928.54
2023-04-28T18:43:27.577Z,97932.23
2023-04-28T18:45:55.048Z,97929.30
2023-04-28T18:48:23.105Z,97932.13
2023-04-28T18:50:50.661Z,97934.13
2023-04-28T18:53:18.489Z,97939.76
2023-04-28T18:55:46.115Z,97936.30
2023-04-28T18:58:15.283Z,97936.67
2023-04-28T19:00:45.257Z,97935.41
2023-04-28T19:03:13.045Z,97934.51
2023-04-28T19:05:43.117Z,97933.15
2023-04-28T19:08:14.124Z,97934.07
2023-04-28T19:10:40.966Z,97936.70
2023-04-28T19:13:07.708Z,97938.19
2023-04-28T19:15:34.750Z,97936.50
2023-04-28T19:18:02.303Z,97937.42
2023-04-28T19:20:29.442Z,97944.30
2023-04-28T19:23:00.717Z,97947.52
2023-04-28T19:25:30.122Z,97947.02
2023-04-28T19:27:57.576Z,97949.88
2023-04-28T19:30:24.828Z,97953.05
2023-04-28T19:32:52.407Z,97954.38
2023-04-28T19:35:20.719Z,97952.21
2023-04-28T19:37:49.380Z,97954.02
2023-04-28T19:40:17.006Z,97953.28
2023-04-28T19:42:44.607Z,97955.88
2023-04-28T19:45:11.724Z,97954.59
2023-04-28T19:47:39.093Z,97953.83
2023-04-28T19:50:07.837Z,97953.84
2023-04-28T19:52:34.707Z,97950.17
2023-04-28T19:55:01.747Z,97950.48
2023-04-28T19:57:29.204Z,97951.38
2023-04-28T19:59:56.865Z,97950.05
2023-04-28T20:02:23.820Z,97948.95
2023-04-28T20:04:51.056Z,97954.23
2023-04-28T20:07:18.199Z,97953.19
2023-04-28T20:09:46.202Z,97949.98
2023-04-28T20:12:14.854Z,97955.15
2023-04-28T20:14:42.011Z,97953.54
2023-04-28T20:17:09.530Z,97950.02
2023-04-28T20:19:37.329Z,97950.25
2023-04-28T20:22:06.802Z,97951.17
2023-04-28T20:24:36.497Z,97954.50
2023-04-28T20:27:03.554Z,97951.63
2023-04-28T20:29:33.709Z,97948.27
2023-04-28T20:32:01.790Z,97947.36
2023-04-28T20:34:32.208Z,97947.58
2023-04-28T20:36:59.155Z,97945.60
2023-04-28T20:39:26.360Z,97950.62
2023-04-28T20:41:53.486Z,97950.79
2023-04-28T20:44:20.917Z,97949.66
2023-04-28T20:46:48.676Z,97949.73
2023-04-28T20:49:15.942Z,97948.20
2023-04-28T20:51:45.938Z,97950.23
2023-04-28T20:54:13.604Z,97949.75
2023-04-28T20:56:42.445Z,97947.90
2023-04-28T20:59:09.424Z,97950.83
2023-04-28T21:01:37.015Z,97948.30
2023-04-28T21:04:04.421Z,97947.58
2023-04-28T21:06:31.700Z,97949.40
2023-04-28T21:08:58.852Z,97946.48
2023-04-28T21:11:26.622Z,97945.34
2023-04-28T21:13:53.761Z,97938.97
2023-04-28T21:16:21.695Z,97934.54
2023-04-28T21:18:49.646Z,97932.40
2023-04-28T21:21:17.990Z,97936.87
2023-04-28T21:23:45.237Z,97932.34
2023-04-28T21:26:13.059Z,97933.58
2023-04-28T21:28:41.068Z,97931.39
2023-04-28T21:31:09.339Z,97930.50
2023-04-28T21:33:36.693Z,97928.47
2023-04-28T21:36:06.950Z,97925.86
2023-04-28T21:38:37.391Z,97926.70
2023-04-28T21:41:04.540Z,97923.47
2023-04-28T21:43:31.848Z,97920.67
2023-04-28T21:45:59.260Z,97918.04
2023-04-28T21:48:26.550Z,97921.83
2023-04-28T21:50:53.599Z,97928.42
2023-04-28T21:53:20.695Z,97927.35
2023-04-28T21:55:47.899Z,97931.79
2023-04-28T21:58:15.287Z,97932.16
2023-04-28T22:00:43.278Z,97930.92
2023-04-28T22:03:10.984Z,97933.19
2023-04-28T22:05:39.806Z,97929.33
2023-04-28T22:08:07.333Z,97930.80
2023-04-28T22:10:34.582Z,97934.94
2023-04-28T22:13:02.043Z,97936.20
2023-04-28T22:15:29.457Z,97935.38
2023-04-28T22:17:57.610Z,97932.84
2023-04-28T22:20:25.032Z,97934.14
2023-04-28T22:22:53.347Z,97935.45
2023-04-28T22:25:20.859Z,97929.32
2023-04-28T22:27:48.219Z,97926.67
2023-04-28T22:30:15.678Z,97925.06
2023-04-28T22:32:44.217Z,97925.81
2023-04-28T22:35:16.121Z,97921.80
2023-04-28T22:37:43.626Z,97927.60
2023-04-28T22:40:11.037Z,97927.50
2023-04-28T22:42:38.998Z,97931.94
2023-04-28T22:45:06.921Z,97931.58
2023-04-28T22:47:34.820Z,97929.48
2023-04-28T22:50:05.967Z,97924.29
2023-04-28T22:52:33.781Z,97917.95
2023-04-28T22:55:01.090Z,97911.08
2023-04-28T22:57:28.496Z,97914.44
2023-04-28T22:59:55.548Z,97913.32
2023-04-28T23:02:23.236Z,97915.31
2023-04-28T23:04:51.135Z,97911.78
2023-04-28T23:07:18.409Z,97911.38
2023-04-28T23:09:45.621Z,97909.77
2023-04-28T23:12:12.886Z,97908.55
2023-04-28T23:14:40.014Z,97911.48
2023-04-28T23:17:07.279Z,97914.36
2023-04-28T23:19:38.521Z,97920.05
2023-04-28T23:22:09.159Z,97924.77
2023-04-28T23:24:36.416Z,97922.77
2023-04-28T23:27:03.664Z,97924.14
2023-04-28T23:29:31.523Z,97928.38
2023-04-28T23:31:59.006Z,97925.42
2023-04-28T23:34:26.407Z,97924.04
2023-04-28T23:36:53.695Z,97926.24
2023-04-28T23:39:21.059Z,97934.20
2023-04-28T23:41:48.227Z,97937.87
2023-04-28T23:44:15.447Z,97939.60
2023-04-28T23:46:42.741Z,97940.34
2023-04-28T23:49:10.291Z,97942.00
2023-04-28T23:51:37.310Z,97946.28
2023-04-28T23:54:04.571Z,97947.35
2023-04-28T23:56:32.520Z,97948.23
2023-04-28T23:58:59.577Z,97949.04
